createdAt,value
2018-11-20T00:00:46.480Z,12.87
2018-11-20T00:03:33.769Z,13.00
2018-11-20T00:06:21.493Z,12.47
2018-11-20T00:09:09.032Z,13.20
2018-11-20T00:11:57.179Z,12.13
2018-11-20T00:14:31.208Z,12.60
2018-11-20T00:17:18.536Z,13.10
2018-11-20T00:20:06.156Z,13.40
2018-11-20T00:22:53.479Z,13.53
2018-11-20T00:25:41.090Z,13.63
2018-11-20T00:28:28.990Z,13.30
2018-11-20T00:31:16.612Z,13.50
2018-11-20T00:34:03.873Z,13.77
2018-11-20T00:36:51.135Z,13.57
2018-11-20T00:39:39.094Z,14.57
2018-11-20T00:42:26.467Z,14.03
2018-11-20T00:45:13.907Z,13.77
2018-11-20T00:47:55.695Z,13.87
2018-11-20T00:50:43.838Z,14.00
2018-11-20T00:53:23.797Z,14.90
2018-11-20T00:56:49.791Z,14.80
2018-11-20T00:59:37.644Z,13.67
2018-11-20T01:02:25.261Z,13.60
2018-11-20T01:05:12.813Z,14.73
2018-11-20T01:08:00.053Z,14.30
2018-11-20T01:10:47.305Z,14.70
2018-11-20T01:13:34.969Z,14.70
2018-11-20T01:16:22.515Z,15.67
2018-11-20T01:19:10.183Z,14.60
2018-11-20T01:21:57.781Z,15.73
2018-11-20T01:24:45.438Z,16.50
2018-11-20T01:27:28.766Z,15.30
2018-11-20T01:30:16.012Z,16.73
2018-11-20T01:33:03.974Z,16.13
2018-11-20T01:35:51.249Z,16.27
2018-11-20T01:38:57.915Z,16.10
2018-11-20T01:41:45.181Z,16.10
2018-11-20T01:44:32.771Z,16.70
2018-11-20T01:47:20.372Z,16.00
2018-11-20T01:50:08.013Z,17.80
2018-11-20T01:52:56.015Z,17.70
2018-11-20T01:55:43.245Z,19.20
2018-11-20T01:58:30.798Z,18.83
2018-11-20T02:01:18.060Z,18.27
2018-11-20T02:04:06.060Z,20.03
2018-11-20T02:06:53.611Z,18.60
2018-11-20T02:09:41.813Z,18.27
2018-11-20T02:12:29.354Z,19.20
2018-11-20T02:15:17.323Z,19.93
2018-11-20T02:18:09.294Z,18.93
2018-11-20T02:20:56.611Z,18.87
2018-11-20T02:23:33.500Z,19.87
2018-11-20T02:26:20.784Z,20.20
2018-11-20T02:29:08.384Z,19.53
2018-11-20T02:31:55.682Z,20.93
2018-11-20T02:34:42.951Z,19.53
2018-11-20T02:37:23.240Z,20.83
2018-11-20T02:40:10.580Z,21.00
2018-11-20T02:42:58.433Z,20.60
2018-11-20T02:45:45.699Z,20.80
2018-11-20T02:48:33.276Z,20.50
2018-11-20T02:51:20.613Z,21.67
2018-11-20T02:54:08.444Z,20.93
2018-11-20T02:56:55.719Z,22.10
2018-11-20T02:59:43.353Z,19.77
2018-11-20T03:02:30.597Z,22.33
2018-11-20T03:05:17.853Z,22.83
2018-11-20T03:08:05.375Z,21.03
2018-11-20T03:10:52.939Z,22.50
2018-11-20T03:13:40.240Z,21.10
2018-11-20T03:16:28.186Z,20.67
2018-11-20T03:19:05.001Z,21.37
2018-11-20T03:21:52.274Z,21.47
2018-11-20T03:24:39.598Z,21.90
2018-11-20T03:27:26.858Z,22.30
2018-11-20T03:30:52.879Z,21.50
2018-11-20T03:33:40.904Z,21.93
2018-11-20T03:36:28.163Z,22.27
2018-11-20T03:39:15.948Z,22.10
2018-11-20T03:42:03.216Z,21.90
2018-11-20T03:44:50.804Z,20.77
2018-11-20T03:47:38.760Z,21.50
2018-11-20T03:50:25.982Z,20.60
2018-11-20T03:53:13.622Z,20.93
2018-11-20T03:55:48.096Z,20.60
2018-11-20T03:58:35.995Z,20.00
2018-11-20T04:01:23.849Z,21.57
2018-11-20T04:04:12.328Z,22.03
2018-11-20T04:06:48.801Z,20.93
2018-11-20T04:09:36.648Z,21.47
2018-11-20T04:12:24.299Z,21.73
2018-11-20T04:15:11.884Z,20.90
2018-11-20T04:17:59.544Z,19.47
2018-11-20T04:20:47.387Z,19.60
2018-11-20T04:23:34.654Z,20.07
2018-11-20T04:26:21.913Z,19.93
2018-11-20T04:29:09.554Z,19.40
2018-11-20T04:32:16.888Z,18.70
2018-11-20T04:35:06.520Z,19.20
2018-11-20T04:37:54.161Z,20.20
2018-11-20T04:40:41.469Z,18.90
2018-11-20T04:43:28.749Z,17.73
2018-11-20T04:46:16.066Z,18.63
2018-11-20T04:49:03.701Z,18.80
2018-11-20T04:51:51.821Z,18.10
2018-11-20T04:54:39.926Z,18.10
2018-11-20T04:57:27.593Z,18.10
2018-11-20T05:00:15.065Z,19.17
2018-11-20T05:03:02.591Z,19.50
2018-11-20T05:05:49.845Z,18.53
2018-11-20T05:08:37.108Z,17.30
2018-11-20T05:11:24.591Z,18.97
2018-11-20T05:14:12.234Z,18.33
2018-11-20T05:16:59.879Z,18.43
2018-11-20T05:19:47.474Z,18.80
2018-11-20T05:22:34.756Z,18.03
2018-11-20T05:25:22.319Z,17.03
2018-11-20T05:28:09.657Z,17.73
2018-11-20T05:30:57.366Z,18.47
2018-11-20T05:33:44.549Z,17.60
2018-11-20T05:36:31.811Z,17.97
2018-11-20T05:39:19.413Z,18.00
2018-11-20T05:42:05.335Z,18.43
2018-11-20T05:45:12.026Z,18.50
2018-11-20T05:47:59.268Z,18.60
2018-11-20T05:50:46.513Z,18.13
2018-11-20T05:53:23.756Z,18.37
2018-11-20T05:56:11.371Z,18.73
2018-11-20T05:58:59.031Z,17.87
2018-11-20T06:01:46.351Z,17.90
2018-11-20T06:04:33.979Z,17.20
2018-11-20T06:07:21.570Z,18.73
2018-11-20T06:10:08.843Z,18.40
2018-11-20T06:12:56.512Z,18.33
2018-11-20T06:15:43.948Z,18.30
2018-11-20T06:18:31.537Z,19.70
2018-11-20T06:21:18.872Z,17.10
2018-11-20T06:24:06.140Z,18.60
2018-11-20T06:26:54.109Z,19.90
2018-11-20T06:29:41.781Z,18.90
2018-11-20T06:32:31.357Z,18.83
2018-11-20T06:35:16.171Z,19.40
2018-11-20T06:38:03.748Z,20.10
2018-11-20T06:40:38.030Z,18.57
2018-11-20T06:43:25.649Z,20.40
2018-11-20T06:46:12.908Z,18.63
2018-11-20T06:48:52.914Z,19.73
2018-11-20T06:51:40.221Z,23.50
2018-11-20T06:54:28.128Z,19.60
2018-11-20T06:57:15.491Z,20.90
2018-11-20T07:00:03.154Z,20.07
2018-11-20T07:02:50.459Z,19.70
2018-11-20T07:05:38.038Z,19.40
2018-11-20T07:08:25.648Z,19.30
2018-11-20T07:11:13.088Z,20.10
2018-11-20T07:14:20.738Z,20.80
2018-11-20T07:17:09.250Z,18.73
2018-11-20T07:19:58.086Z,18.50
2018-11-20T07:22:45.495Z,21.23
2018-11-20T07:25:32.680Z,19.70
2018-11-20T07:28:20.320Z,19.77
2018-11-20T07:31:07.646Z,20.07
2018-11-20T07:33:54.910Z,20.30
2018-11-20T07:36:40.468Z,20.00
2018-11-20T07:39:27.587Z,18.93
2018-11-20T07:42:14.852Z,20.00
2018-11-20T07:45:02.127Z,20.30
2018-11-20T07:47:48.934Z,20.80
2018-11-20T07:50:36.571Z,20.43
2018-11-20T07:53:23.849Z,19.23
2018-11-20T07:56:11.593Z,20.83
2018-11-20T07:58:59.140Z,20.77
2018-11-20T08:01:46.415Z,20.60
2018-11-20T08:04:33.945Z,21.93
2018-11-20T08:07:21.615Z,20.00
2018-11-20T08:10:08.959Z,21.73
2018-11-20T08:12:56.536Z,20.20
2018-11-20T08:15:44.238Z,20.90
2018-11-20T08:18:31.460Z,21.43
2018-11-20T08:21:19.135Z,21.03
2018-11-20T08:24:06.755Z,21.13
2018-11-20T08:26:54.039Z,19.63
2018-11-20T08:29:41.301Z,20.17
2018-11-20T08:32:23.186Z,20.80
2018-11-20T08:35:10.766Z,22.00
2018-11-20T08:37:58.474Z,22.60
2018-11-20T08:40:45.774Z,21.87
2018-11-20T08:43:33.079Z,21.10
2018-11-20T08:46:20.619Z,22.33
2018-11-20T08:49:08.286Z,22.53
2018-11-20T08:51:56.312Z,22.40
2018-11-20T08:54:43.566Z,21.17
2018-11-20T08:57:30.798Z,21.60
2018-11-20T09:00:18.371Z,21.47
2018-11-20T09:03:06.083Z,21.37
2018-11-20T09:05:53.332Z,20.40
2018-11-20T09:08:40.960Z,23.20
2018-11-20T09:11:28.287Z,22.47
2018-11-20T09:14:16.107Z,22.73
2018-11-20T09:17:03.458Z,20.70
2018-11-20T09:19:51.267Z,23.03
2018-11-20T09:22:38.548Z,21.30
2018-11-20T09:25:25.864Z,21.90
2018-11-20T09:28:04.933Z,22.03
2018-11-20T09:30:52.144Z,21.40
2018-11-20T09:33:39.408Z,21.80
2018-11-20T09:36:27.320Z,20.80
2018-11-20T09:39:05.952Z,21.17
2018-11-20T09:41:53.627Z,21.43
2018-11-20T09:45:02.487Z,21.30
2018-11-20T09:47:41.998Z,22.57
2018-11-20T09:50:30.778Z,21.20
2018-11-20T09:53:18.040Z,20.57
2018-11-20T09:56:05.319Z,21.37
2018-11-20T09:58:52.700Z,20.60
2018-11-20T10:01:40.185Z,21.07
2018-11-20T10:04:27.860Z,22.73
2018-11-20T10:07:15.217Z,21.67
2018-11-20T10:10:02.393Z,23.53
2018-11-20T10:12:49.681Z,22.10
2018-11-20T10:15:36.991Z,22.97
2018-11-20T10:18:24.826Z,21.37
2018-11-20T10:21:12.123Z,22.93
2018-11-20T10:23:59.408Z,21.90
2018-11-20T10:26:47.047Z,22.83
2018-11-20T10:29:53.786Z,22.53
2018-11-20T10:32:41.032Z,21.00
2018-11-20T10:35:28.709Z,22.70
2018-11-20T10:38:11.847Z,21.17
2018-11-20T10:40:59.191Z,21.33
2018-11-20T10:43:46.487Z,22.80
2018-11-20T10:46:34.482Z,21.10
2018-11-20T10:49:22.062Z,21.30
2018-11-20T10:52:09.688Z,22.37
2018-11-20T10:54:49.207Z,21.60
2018-11-20T10:57:36.824Z,21.63
2018-11-20T11:00:24.205Z,22.63
2018-11-20T11:03:11.776Z,21.40
2018-11-20T11:05:59.362Z,21.43
2018-11-20T11:08:47.216Z,20.73
2018-11-20T11:11:34.788Z,21.00
2018-11-20T11:14:22.271Z,22.23
2018-11-20T11:17:09.988Z,21.37
2018-11-20T11:19:57.529Z,21.10
2018-11-20T11:22:45.210Z,21.20
2018-11-20T11:25:32.451Z,19.90
2018-11-20T11:28:20.036Z,20.13
2018-11-20T11:31:07.738Z,21.20
2018-11-20T11:33:49.774Z,20.40
2018-11-20T11:36:37.715Z,20.50
2018-11-20T11:39:27.570Z,21.07
2018-11-20T11:42:15.148Z,21.00
2018-11-20T11:45:02.433Z,21.43
2018-11-20T11:47:50.274Z,20.33
2018-11-20T11:50:37.537Z,19.97
2018-11-20T11:53:25.532Z,19.93
2018-11-20T11:56:12.830Z,21.33
2018-11-20T11:59:00.513Z,20.20
2018-11-20T12:04:24.380Z,20.37
2018-11-20T12:07:12.010Z,22.53
2018-11-20T12:09:59.625Z,19.93
2018-11-20T12:12:47.232Z,21.20
2018-11-20T12:15:35.159Z,19.37
2018-11-20T12:18:22.465Z,20.40
2018-11-20T12:21:10.110Z,20.67
2018-11-20T12:23:48.338Z,20.77
2018-11-20T12:26:36.018Z,20.87
2018-11-20T12:29:23.629Z,19.27
2018-11-20T12:32:10.903Z,20.00
2018-11-20T12:34:58.816Z,21.40
2018-11-20T12:37:46.072Z,21.37
2018-11-20T12:40:33.343Z,22.73
2018-11-20T12:43:21.296Z,21.93
2018-11-20T12:46:12.964Z,20.83
2018-11-20T12:48:56.349Z,21.77
2018-11-20T12:51:43.576Z,21.90
2018-11-20T12:54:31.216Z,23.13
2018-11-20T12:57:18.911Z,21.97
2018-11-20T12:59:59.292Z,22.60
2018-11-20T13:02:46.622Z,23.47
2018-11-20T13:05:34.530Z,22.07
2018-11-20T13:08:21.850Z,22.80
2018-11-20T13:11:09.463Z,22.00
2018-11-20T13:13:58.818Z,23.87
2018-11-20T13:16:44.472Z,23.80
2018-11-20T13:19:33.323Z,23.73
2018-11-20T13:22:19.999Z,23.37
2018-11-20T13:25:07.308Z,24.03
2018-11-20T13:27:54.578Z,24.90
2018-11-20T13:30:42.144Z,24.13
2018-11-20T13:33:29.701Z,22.77
2018-11-20T13:36:17.711Z,24.50
2018-11-20T13:39:06.109Z,25.20
2018-11-20T13:41:58.164Z,23.33
2018-11-20T13:44:48.253Z,24.73
2018-11-20T13:47:35.902Z,25.60
2018-11-20T13:50:23.616Z,25.13
2018-11-20T13:53:11.944Z,24.57
2018-11-20T13:55:58.633Z,24.27
2018-11-20T13:58:46.631Z,24.80
2018-11-20T14:01:34.227Z,24.50
2018-11-20T14:04:09.476Z,26.57
2018-11-20T14:06:57.746Z,24.33
2018-11-20T14:09:45.607Z,26.23
2018-11-20T14:12:35.535Z,25.07
2018-11-20T14:15:23.327Z,25.10
2018-11-20T14:18:11.266Z,23.70
2018-11-20T14:20:59.457Z,26.53
2018-11-20T14:24:06.911Z,24.20
2018-11-20T14:26:54.344Z,25.77
2018-11-20T14:29:42.156Z,24.80
2018-11-20T14:32:29.832Z,26.00
2018-11-20T14:35:19.728Z,23.50
2018-11-20T14:38:07.491Z,23.27
2018-11-20T14:40:55.125Z,23.37
2018-11-20T14:43:42.546Z,24.60
2018-11-20T14:46:30.695Z,21.37
2018-11-20T14:49:40.887Z,23.00
2018-11-20T14:52:25.508Z,24.30
2018-11-20T14:55:13.101Z,23.13
2018-11-20T14:58:01.048Z,21.17
2018-11-20T15:01:07.903Z,21.47
2018-11-20T15:03:56.397Z,21.87
2018-11-20T15:06:44.098Z,21.80
2018-11-20T15:09:31.399Z,21.50
2018-11-20T15:12:18.970Z,21.83
2018-11-20T15:15:07.485Z,19.83
2018-11-20T15:17:48.104Z,20.90
2018-11-20T15:20:36.083Z,21.37
2018-11-20T15:23:23.509Z,18.47
2018-11-20T15:26:11.327Z,18.57
2018-11-20T15:28:59.010Z,20.77
2018-11-20T15:31:47.000Z,18.93
2018-11-20T15:34:34.758Z,17.40
2018-11-20T15:37:44.589Z,18.40
2018-11-20T15:40:31.839Z,17.60
2018-11-20T15:43:19.413Z,14.60
2018-11-20T15:46:06.994Z,15.17
2018-11-20T15:48:54.764Z,13.40
2018-11-20T15:51:42.310Z,13.53
2018-11-20T15:54:29.992Z,13.87
2018-11-20T15:57:17.576Z,12.33
2018-11-20T16:00:06.194Z,11.33
2018-11-20T16:02:53.476Z,12.37
2018-11-20T16:05:40.812Z,11.57
2018-11-20T16:08:28.817Z,10.77
2018-11-20T16:11:16.510Z,11.00
2018-11-20T16:14:04.071Z,11.20
2018-11-20T16:16:51.915Z,10.80
2018-11-20T16:19:39.284Z,11.97
2018-11-20T16:22:26.888Z,10.07
2018-11-20T16:25:15.210Z,10.27
2018-11-20T16:28:02.736Z,12.30
2018-11-20T16:30:50.280Z,10.73
2018-11-20T16:33:37.967Z,10.40
2018-11-20T16:36:25.241Z,11.33
2018-11-20T16:39:13.205Z,10.30
2018-11-20T16:42:00.461Z,10.67
2018-11-20T16:44:47.819Z,11.17
2018-11-20T16:47:35.438Z,11.23
2018-11-20T16:50:22.719Z,11.13
2018-11-20T16:53:10.038Z,10.40
2018-11-20T16:55:57.402Z,11.67
2018-11-20T16:58:45.068Z,11.40
2018-11-20T17:01:33.042Z,11.53
2018-11-20T17:04:20.681Z,12.03
2018-11-20T17:10:24.704Z,11.60
2018-11-20T17:13:07.459Z,10.30
2018-11-20T17:15:55.932Z,10.90
2018-11-20T17:18:43.958Z,11.70
2018-11-20T17:21:31.561Z,11.60
2018-11-20T17:24:38.265Z,12.30
2018-11-20T17:27:25.888Z,12.13
2018-11-20T17:30:14.058Z,11.10
2018-11-20T17:33:01.547Z,12.70
2018-11-20T17:35:48.811Z,12.43
2018-11-20T17:38:36.559Z,13.10
2018-11-20T17:41:24.086Z,12.67
2018-11-20T17:44:11.376Z,12.03
2018-11-20T17:46:59.043Z,14.00
2018-11-20T17:49:46.863Z,13.80
2018-11-20T17:52:35.330Z,13.90
2018-11-20T17:55:13.756Z,13.80
2018-11-20T17:58:01.629Z,14.17
2018-11-20T18:00:49.259Z,14.10
2018-11-20T18:03:36.530Z,13.83
2018-11-20T18:06:24.876Z,14.17
2018-11-20T18:09:12.478Z,13.70
2018-11-20T18:12:00.121Z,15.20
2018-11-20T18:14:47.481Z,14.63
2018-11-20T18:17:34.767Z,16.27
2018-11-20T18:20:22.063Z,16.00
2018-11-20T18:23:09.328Z,14.73
2018-11-20T18:25:49.372Z,15.60
2018-11-20T18:28:37.290Z,16.30
2018-11-20T18:31:24.873Z,16.03
2018-11-20T18:34:02.661Z,15.33
2018-11-20T18:36:49.957Z,14.03
2018-11-20T18:39:36.041Z,16.63
2018-11-20T18:42:23.661Z,15.80
2018-11-20T18:45:11.312Z,16.43
2018-11-20T18:47:58.535Z,16.07
2018-11-20T18:50:45.788Z,15.67
2018-11-20T18:53:33.379Z,16.87
2018-11-20T18:56:17.217Z,16.17
2018-11-20T18:59:04.821Z,17.60
2018-11-20T19:02:11.485Z,17.43
2018-11-20T19:04:58.789Z,17.30
2018-11-20T19:07:35.650Z,16.97
2018-11-20T19:10:23.265Z,18.90
2018-11-20T19:13:10.657Z,17.60
2018-11-20T19:15:58.332Z,17.03
2018-11-20T19:18:45.706Z,17.13
2018-11-20T19:21:33.081Z,18.23
2018-11-20T19:24:21.082Z,18.30
2018-11-20T19:27:08.730Z,18.03
2018-11-20T19:29:56.876Z,18.13
2018-11-20T19:32:45.314Z,18.60
2018-11-20T19:35:33.403Z,19.27
2018-11-20T19:38:20.793Z,19.50
2018-11-20T19:41:27.538Z,20.10
2018-11-20T19:44:14.931Z,18.90
2018-11-20T19:47:02.597Z,19.77
2018-11-20T19:49:49.938Z,19.53
2018-11-20T19:52:37.732Z,19.53
2018-11-20T19:55:25.480Z,19.57
2018-11-20T19:58:13.160Z,21.07
2018-11-20T20:01:00.700Z,18.57
2018-11-20T20:03:48.120Z,20.33
2018-11-20T20:06:35.424Z,19.87
2018-11-20T20:09:25.461Z,19.90
2018-11-20T20:12:13.937Z,20.23
2018-11-20T20:15:01.829Z,19.67
2018-11-20T20:17:48.893Z,21.40
2018-11-20T20:20:37.777Z,20.70
2018-11-20T20:23:14.199Z,21.17
2018-11-20T20:26:01.927Z,22.13
2018-11-20T20:28:49.324Z,21.40
2018-11-20T20:31:36.773Z,21.33
2018-11-20T20:34:24.355Z,19.83
2018-11-20T20:37:18.519Z,21.57
2018-11-20T20:40:03.466Z,20.47
2018-11-20T20:42:51.193Z,21.20
2018-11-20T20:45:38.954Z,19.93
2018-11-20T20:48:26.758Z,21.60
2018-11-20T20:51:14.157Z,20.73
2018-11-20T20:54:23.113Z,20.20
2018-11-20T20:57:02.920Z,20.23
2018-11-20T20:59:50.435Z,20.10
2018-11-20T21:02:38.104Z,21.00
2018-11-20T21:05:17.356Z,21.83
2018-11-20T21:08:05.068Z,21.80
2018-11-20T21:10:52.428Z,22.60
2018-11-20T21:13:39.790Z,21.87
2018-11-20T21:16:27.808Z,22.00
2018-11-20T21:19:15.568Z,22.13
2018-11-20T21:22:03.508Z,21.73
2018-11-20T21:24:51.131Z,21.20
2018-11-20T21:27:38.764Z,21.43
2018-11-20T21:30:27.143Z,21.33
2018-11-20T21:33:14.390Z,22.27
2018-11-20T21:36:01.786Z,23.00
2018-11-20T21:38:49.353Z,21.90
2018-11-20T21:41:36.636Z,22.50
2018-11-20T21:44:23.964Z,22.00
2018-11-20T21:47:11.534Z,22.67
2018-11-20T21:49:59.060Z,21.97
2018-11-20T21:52:46.688Z,22.20
2018-11-20T21:55:22.460Z,21.60
2018-11-20T21:58:09.695Z,21.97
2018-11-20T22:01:17.699Z,22.80
2018-11-20T22:04:05.269Z,21.03
2018-11-20T22:06:52.919Z,21.20
2018-11-20T22:09:40.164Z,22.00
2018-11-20T22:12:27.671Z,21.53
2018-11-20T22:15:14.909Z,21.80
2018-11-20T22:18:02.215Z,22.77
2018-11-20T22:20:49.454Z,24.50
2018-11-20T22:23:36.708Z,22.30
2018-11-20T22:26:24.393Z,21.50
2018-11-20T22:29:11.940Z,21.20
2018-11-20T22:31:59.744Z,21.87
2018-11-20T22:34:46.994Z,21.90
2018-11-20T22:37:34.219Z,21.33
2018-11-20T22:40:22.143Z,21.80
2018-11-20T22:43:09.767Z,22.33
2018-11-20T22:45:57.760Z,21.40
2018-11-20T22:48:45.875Z,21.53
2018-11-20T22:51:34.398Z,22.10
2018-11-20T22:54:21.681Z,20.80
2018-11-20T22:57:09.546Z,22.60
2018-11-20T22:59:56.817Z,21.87
2018-11-20T23:02:32.713Z,21.97
2018-11-20T23:05:18.918Z,21.50
2018-11-20T23:07:53.856Z,22.63
2018-11-20T23:10:23.522Z,22.37
2018-11-20T23:12:52.168Z,21.57
2018-11-20T23:15:21.079Z,21.00
2018-11-20T23:17:49.609Z,21.93
2018-11-20T23:20:18.351Z,21.00
2018-11-20T23:22:46.864Z,21.13
2018-11-20T23:25:15.909Z,20.87
2018-11-20T23:28:03.497Z,21.63
2018-11-20T23:30:31.979Z,21.23
2018-11-20T23:33:00.446Z,19.70
2018-11-20T23:35:29.826Z,20.10
2018-11-20T23:37:58.678Z,22.37
2018-11-20T23:40:27.494Z,19.90
2018-11-20T23:42:56.013Z,20.63
2018-11-20T23:45:24.496Z,21.20
2018-11-20T23:47:52.929Z,20.53
2018-11-20T23:50:21.121Z,21.00
2018-11-20T23:52:49.944Z,21.50
2018-11-20T23:55:18.896Z,20.40
2018-11-20T23:57:47.481Z,20.63
